Historyczne dane pomiarowe

Dodano dane terminowe – wersja testowa.

Dane z okresu 1951-2019

Wersja bazy: 1.34 [2019-03-16, lista zmian], aktualizacja planowana na 2019-04-15

Dane meteo z obszaru Polski uzyskane na podstawie danych udostępnionych przez Instytut Meteorologii i Gospodarki Wodnej – Państwowy Instytut Badawczy.

 

Wybierz Datę:    

       

TemperaturaWilgotnośćWiatrCiśnienieOpadyŚniegCzas trwania zjawisk
 Stacja t tx tn tng RH VA  wxwx mslp ppp RRR   cm mm wxwxwxwxwxwxwx
1987-08-14 13.1 16.5 8.2 5.5 90.3- 7.0 2.0---- 2.7------------
1987-08-13 13.6 20.2 6.7 5.0 73.3- 2.3 1.3---- 0.0------------
1987-08-12 12.7 18.6 7.2 4.7 81.8- 5.3 2.0---- 0.4------------
1987-08-11 13.2 17.0 10.6 7.7 83.0- 6.3 2.7---- 0.0------------
1987-08-10 14.3 18.0 12.5 11.8 89.8- 7.3 2.0---- 1.7------------
1987-08-09 16.6 23.5 9.6 6.5 76.5- 5.0 2.0---- 10.8------------
1987-08-08 14.7 20.8 7.3 4.2 72.5- 3.3 2.3---- 0.0------------
1987-08-07 11.1 17.6 5.2 3.3 83.3- 7.3 3.0---- 0.0------------
1987-08-06 11.4 15.2 8.4 6.5 80.3- 7.0 2.7---- 0.6------------
1987-08-05 11.6 17.5 7.9 4.4 84.3- 4.3 2.0---- 0.2------------
1987-08-04 14.5 17.6 12.6 9.7 74.5- 6.7 2.0---- 0.0------------
1987-08-03 14.7 20.1 8.6 5.6 78.3- 6.7 1.7---- 0.9------------
1987-08-02 14.1 18.3 11.2 9.7 80.5- 6.3 2.0---- 6.4------------
1987-08-01 16.0 19.3 13.8 12.2 82.0- 7.7 1.0---- 8.3------------
1987-07-31 15.7 21.7 12.6 12.4 87.0- 7.3 2.3---- 0.0------------
1987-07-30 17.5 24.3 8.4 5.7 77.3- 4.3 1.3---- 4.6------------
1987-07-29 14.7 18.7 10.4 9.2 79.8- 7.0 1.3---- 0.0------------
1987-07-28 13.6 15.1 11.4 11.1 81.8- 7.3 2.7---- 0.7------------
1987-07-27 12.4 17.1 9.3 7.0 72.0- 7.0 4.3---- 5.3------------
1987-07-26 13.4 16.1 11.5 11.2 78.5- 7.7 1.3---- 0.0------------
1987-07-25 17.6 21.7 14.7 13.3 82.5- 6.7 1.3---- 1.1------------
1987-07-24 19.6 24.2 15.2 13.3 81.5- 7.3 1.3---- 0.0------------
1987-07-23 20.3 26.8 12.0 10.7 79.3- 4.0 1.0---- 0.0------------
1987-07-22 18.5 23.2 14.8 14.6 83.0- 5.0 0.7---- 0.0------------
1987-07-21 18.4 25.0 11.7 9.6 84.0- 4.0 2.0---- 14.9------------
1987-07-20 18.2 22.3 14.8 14.3 85.5- 5.0 1.0---- 0.0------------
1987-07-19 19.1 22.8 15.8 12.0 87.0- 7.7 1.3---- 13.0------------
1987-07-18 21.2 26.2 15.5 13.3 87.8- 5.0 1.0---- 0.0------------
1987-07-17 23.3 30.4 16.8 14.8 72.5- 2.7 4.0---- 0.0------------
1987-07-16 20.6 27.6 12.3 10.0 69.0- 6.0 2.0---- 0.0------------
1987-07-15 17.2 23.2 9.2 6.7 70.8- 2.3 2.7---- 0.0------------
1987-07-14 16.1 21.4 8.2 5.4 73.0- 1.7 1.3---- 0.0------------
1987-07-13 16.7 20.1 11.5 9.0 78.5- 5.7 2.3---- 0.0------------
1987-07-12 20.1 27.4 14.3 11.5 78.0- 6.0 1.7---- 5.5------------
1987-07-11 16.5 23.3 8.0 5.9 73.0- 6.7 2.7---- 0.0------------
1987-07-10 14.7 18.1 10.0 8.5 69.8- 4.0 2.7---- 0.0------------
1987-07-09 16.1 21.4 15.2 15.0 92.0- 6.7 2.3---- 6.7------------
1987-07-08 20.8 27.4 13.7 10.3 77.0- 4.7 1.7---- 5.5------------
1987-07-07 20.1 26.9 10.0 8.0 62.0- 0.3 2.3---- 0.0------------
1987-07-06 18.3 24.1 8.7 7.2 70.5- 1.0 1.0---- 0.0------------
1987-07-05 16.1 20.8 10.2 8.5 73.3- 3.3 2.0---- 0.0------------
1987-07-04 17.4 22.7 11.0 9.1 75.0- 5.3 1.7---- 0.0------------
1987-07-03 18.9 24.0 14.3 12.4 80.3- 3.7 1.3---- 0.0------------
1987-07-02 17.6 20.2 15.1 14.8 88.0- 7.3 2.0---- 0.2------------
1987-07-01 22.8 30.6 17.4 15.0 81.5- 4.7 2.0---- 9.5------------
1987-06-30 23.7 30.0 15.5 13.9 75.3- 2.7 1.7---- 0.0------------
1987-06-29 21.2 26.8 15.4 12.6 83.8- 5.0 0.7---- 0.0------------
1987-06-28 18.9 23.7 12.9 11.0 81.5- 7.0 2.7---- 0.0------------
1987-06-27 16.8 20.7 14.6 13.8 92.0- 7.3 2.0---- 0.6------------
1987-06-26 16.4 23.2 9.3 6.9 79.3- 5.7 2.0---- 34.8------------
1987-06-25 14.4 17.4 11.6 11.3 78.5- 4.7 2.0---- 0.0------------
1987-06-24 15.0 19.6 11.0 9.0 84.0- 6.0 2.0---- 3.1------------
1987-06-23 15.3 20.2 9.9 7.0 81.8- 6.7 2.3---- 0.0------------
1987-06-22 14.3 15.6 12.7 7.4 91.0- 7.0 2.7---- 0.0------------
1987-06-21 16.8 23.9 9.6 7.0 82.5- 5.3 1.0---- 0.8------------
1987-06-20 16.1 21.4 9.9 6.4 72.8- 7.0 3.3---- 0.0------------
1987-06-19 12.4 17.5 7.8 5.7 78.8- 7.3 2.0---- 0.0------------
1987-06-18 10.3 14.4 6.7 3.4 84.5- 7.0 2.7---- 2.3------------
1987-06-17 12.7 16.2 8.4 5.7 69.5- 6.3 2.3---- 0.0------------
1987-06-16 12.0 23.8 9.1 8.6 82.3- 6.7 3.0---- 1.7------------
538.2 ms

 

Źródłem pochodzenia danych jest Instytut Meteorologii i Gospodarki Wodnej – Państwowy Instytut Badawczy. Dane Instytutu Meteorologii i Gospodarki Wodnej – Państwowego Instytutu Badawczego zostały przetworzone.

Dane źródłowe można odnaleźć na stronie https://dane.imgw.pl